Arthur, West Virginia
Current Conditions -  °F | °C
As of 10:55 PM on Saturday 24 Jan 2015 (Local Time) from KW99 Reporting Station
Overcast Overcast  
Wind Chill: 37°   Ceiling: 3300
Heat Index: 37°   Visibility: 10mi
Dew Point: 25°   Wind: 3mph
Humidity: 60%   Direction: 300°WNW
Pressure: 29.71"   Gusts: NA
Location:  38.9337°N, 79.1435°W
Report Text: KW99 250355Z AUTO 30003KT 10SM OVC033 03/M04 A2971 RMK AO2 T00301040
Loading
Personal Weather Stations






























Interactive Weather Map New forecast layout! Learn more

10-Day Weather Forecast

Advertisements
Track Severe Weather on mobile